createdAt,value
2019-06-26T00:02:14.015Z,14.17
2019-06-26T00:04:43.386Z,14.80
2019-06-26T00:07:12.755Z,14.00
2019-06-26T00:09:42.205Z,13.87
2019-06-26T00:12:11.607Z,13.00
2019-06-26T00:14:41.145Z,13.67
2019-06-26T00:17:10.515Z,13.33
2019-06-26T00:19:39.884Z,13.03
2019-06-26T00:22:09.254Z,13.40
2019-06-26T00:24:38.621Z,14.80
2019-06-26T00:27:08.070Z,15.20
2019-06-26T00:29:37.514Z,12.57
2019-06-26T00:32:06.846Z,13.97
2019-06-26T00:34:36.257Z,13.13
2019-06-26T00:37:05.783Z,12.70
2019-06-26T00:39:35.137Z,12.50
2019-06-26T00:42:04.571Z,13.70
2019-06-26T00:44:33.999Z,11.83
2019-06-26T00:47:03.341Z,12.27
2019-06-26T00:49:32.699Z,13.83
2019-06-26T00:52:02.101Z,12.87
2019-06-26T00:54:31.491Z,12.90
2019-06-26T00:57:00.807Z,12.67
2019-06-26T00:59:30.220Z,11.53
2019-06-26T01:01:59.547Z,13.70
2019-06-26T01:04:32.874Z,13.17
2019-06-26T01:07:02.234Z,14.37
2019-06-26T01:09:31.576Z,13.73
2019-06-26T01:12:00.929Z,14.23
2019-06-26T01:14:30.324Z,14.90
2019-06-26T01:16:59.754Z,14.43
2019-06-26T01:19:29.066Z,14.93
2019-06-26T01:21:58.413Z,15.90
2019-06-26T01:24:27.786Z,15.17
2019-06-26T01:26:57.160Z,15.27
2019-06-26T01:29:26.560Z,14.97
2019-06-26T01:31:55.944Z,13.47
2019-06-26T01:34:25.279Z,14.33
2019-06-26T01:36:54.656Z,13.63
2019-06-26T01:39:23.997Z,14.80
2019-06-26T01:41:53.369Z,14.30
2019-06-26T01:44:22.768Z,13.87
2019-06-26T01:46:52.103Z,13.20
2019-06-26T01:49:21.446Z,14.13
2019-06-26T01:51:50.815Z,14.20
2019-06-26T01:54:20.278Z,13.47
2019-06-26T01:56:49.620Z,13.10
2019-06-26T01:59:18.996Z,13.80
2019-06-26T02:01:48.328Z,13.63
2019-06-26T02:04:17.677Z,13.80
2019-06-26T02:06:47.050Z,13.70
2019-06-26T02:09:16.458Z,13.27
2019-06-26T02:11:45.811Z,13.83
2019-06-26T02:14:29.987Z,13.57
2019-06-26T02:16:46.299Z,13.20
2019-06-26T02:19:16.978Z,12.90
2019-06-26T02:21:46.401Z,14.33
2019-06-26T02:24:15.746Z,14.87
2019-06-26T02:26:45.120Z,15.47
2019-06-26T02:29:14.469Z,15.50
2019-06-26T02:31:43.827Z,15.07
2019-06-26T02:34:13.196Z,15.07
2019-06-26T02:36:42.824Z,14.47
2019-06-26T02:39:12.185Z,14.10
2019-06-26T02:41:41.561Z,13.53
2019-06-26T02:44:10.915Z,13.10
2019-06-26T02:46:40.322Z,12.23
2019-06-26T02:49:09.663Z,11.33
2019-06-26T02:51:39.044Z,11.20
2019-06-26T02:54:08.405Z,12.27
2019-06-26T02:56:37.736Z,12.30
2019-06-26T02:59:07.159Z,12.50
2019-06-26T03:01:36.698Z,12.00
2019-06-26T03:04:06.113Z,11.60
2019-06-26T03:06:35.501Z,11.83
2019-06-26T03:09:06.546Z,12.27
2019-06-26T03:11:36.005Z,11.70
2019-06-26T03:14:05.361Z,11.77
2019-06-26T03:16:34.753Z,12.30
2019-06-26T03:19:04.085Z,13.17
2019-06-26T03:21:33.477Z,13.17
2019-06-26T03:24:02.827Z,12.93
2019-06-26T03:26:32.233Z,12.97
2019-06-26T03:29:01.607Z,12.50
2019-06-26T03:31:30.988Z,12.60
2019-06-26T03:34:00.325Z,12.70
2019-06-26T03:36:29.687Z,12.10
2019-06-26T03:38:59.068Z,13.00
2019-06-26T03:41:28.405Z,12.40
2019-06-26T03:43:57.870Z,12.13
2019-06-26T03:46:27.239Z,12.83
2019-06-26T03:48:56.603Z,12.37
2019-06-26T03:51:25.993Z,12.93
2019-06-26T03:53:55.377Z,12.03
2019-06-26T03:56:24.723Z,11.53
2019-06-26T03:58:54.088Z,12.10
2019-06-26T04:01:23.435Z,11.77
2019-06-26T04:03:52.762Z,11.97
2019-06-26T04:06:22.126Z,11.93
2019-06-26T04:08:51.549Z,11.57
2019-06-26T04:11:20.983Z,12.50
2019-06-26T04:13:50.359Z,11.27
2019-06-26T04:16:19.942Z,12.60
2019-06-26T04:18:49.269Z,11.23
2019-06-26T04:21:18.895Z,12.30
2019-06-26T04:23:48.262Z,11.90
2019-06-26T04:26:17.722Z,12.80
2019-06-26T04:28:47.054Z,11.60
2019-06-26T04:31:16.422Z,12.57
2019-06-26T04:33:45.801Z,12.87
2019-06-26T04:36:15.235Z,13.77
2019-06-26T04:38:44.609Z,13.23
2019-06-26T04:41:13.942Z,14.50
2019-06-26T04:43:43.262Z,14.00
2019-06-26T04:46:12.634Z,13.80
2019-06-26T04:48:41.982Z,14.07
2019-06-26T04:51:11.449Z,14.03
2019-06-26T04:53:40.828Z,14.07
2019-06-26T04:56:10.635Z,14.13
2019-06-26T04:58:39.965Z,14.67
2019-06-26T05:01:09.536Z,12.50
2019-06-26T05:03:38.909Z,13.05
2019-06-26T05:06:08.283Z,13.73
2019-06-26T05:08:37.615Z,14.13
2019-06-26T05:11:06.989Z,13.50
2019-06-26T05:13:36.407Z,13.90
2019-06-26T05:16:14.795Z,14.30
2019-06-26T05:18:36.957Z,14.30
2019-06-26T05:21:06.346Z,15.70
2019-06-26T05:23:35.679Z,14.47
2019-06-26T05:26:05.049Z,19.20
2019-06-26T05:28:34.371Z,13.47
2019-06-26T05:31:03.736Z,13.10
2019-06-26T05:33:33.162Z,13.10
2019-06-26T05:36:02.496Z,14.43
2019-06-26T05:38:31.906Z,14.70
2019-06-26T05:41:01.264Z,13.65
2019-06-26T05:43:30.804Z,13.90
2019-06-26T05:46:00.168Z,13.48
2019-06-26T05:48:29.536Z,13.48
2019-06-26T05:50:58.915Z,13.72
2019-06-26T05:53:28.250Z,13.20
2019-06-26T05:55:57.602Z,13.25
2019-06-26T05:58:26.998Z,13.55
2019-06-26T06:00:56.366Z,13.08
2019-06-26T06:03:25.883Z,13.33
2019-06-26T06:05:55.242Z,14.40
2019-06-26T06:08:24.598Z,13.28
2019-06-26T06:10:57.860Z,14.70
2019-06-26T06:13:25.275Z,15.18
2019-06-26T06:15:54.685Z,14.28
2019-06-26T06:18:24.003Z,12.98
2019-06-26T06:20:53.328Z,12.60
2019-06-26T06:23:22.648Z,12.33
2019-06-26T06:25:52.057Z,11.95
2019-06-26T06:28:21.525Z,12.95
2019-06-26T06:30:50.933Z,11.57
2019-06-26T06:33:20.364Z,11.45
2019-06-26T06:35:50.190Z,11.60
2019-06-26T06:38:19.616Z,11.45
2019-06-26T06:40:49.008Z,12.63
2019-06-26T06:43:18.367Z,11.77
2019-06-26T06:45:47.756Z,11.57
2019-06-26T06:48:17.114Z,12.23
2019-06-26T06:50:46.470Z,12.55
2019-06-26T06:53:15.840Z,12.13
2019-06-26T06:55:45.220Z,12.33
2019-06-26T06:58:14.571Z,12.45
2019-06-26T07:00:43.965Z,13.60
2019-06-26T07:03:13.387Z,11.12
2019-06-26T07:05:42.800Z,11.33
2019-06-26T07:08:12.276Z,11.35
2019-06-26T07:10:41.642Z,10.58
2019-06-26T07:13:11.209Z,10.90
2019-06-26T07:15:40.563Z,9.10
2019-06-26T07:18:09.940Z,9.50
2019-06-26T07:20:39.293Z,9.35
2019-06-26T07:23:08.999Z,9.38
2019-06-26T07:25:38.347Z,10.40
2019-06-26T07:28:07.815Z,9.45
2019-06-26T07:30:37.160Z,9.15
2019-06-26T07:33:06.616Z,8.95
2019-06-26T07:35:36.046Z,9.60
2019-06-26T07:38:05.419Z,9.28
2019-06-26T07:40:34.816Z,9.48
2019-06-26T07:43:04.224Z,9.35
2019-06-26T07:45:33.549Z,8.85
2019-06-26T07:48:02.897Z,8.45
2019-06-26T07:50:32.755Z,8.95
2019-06-26T07:53:02.271Z,8.85
2019-06-26T07:55:31.704Z,8.25
2019-06-26T07:58:01.035Z,8.68
2019-06-26T08:00:31.864Z,9.13
2019-06-26T08:03:04.257Z,10.55
2019-06-26T08:05:32.493Z,8.90
2019-06-26T08:08:01.838Z,8.75
2019-06-26T08:10:31.511Z,9.98
2019-06-26T08:13:01.103Z,9.38
2019-06-26T08:15:30.451Z,9.40
2019-06-26T08:18:01.519Z,10.38
2019-06-26T08:20:31.141Z,9.28
2019-06-26T08:23:00.536Z,9.10
2019-06-26T08:25:29.861Z,9.10
2019-06-26T08:27:59.303Z,9.13
2019-06-26T08:30:28.832Z,9.18
2019-06-26T08:32:58.174Z,9.40
2019-06-26T08:35:27.548Z,8.78
2019-06-26T08:38:09.441Z,9.58
2019-06-26T08:40:28.003Z,9.53
2019-06-26T08:42:57.379Z,9.30
2019-06-26T08:45:26.714Z,9.38
2019-06-26T08:47:56.056Z,9.23
2019-06-26T08:50:25.449Z,10.43
2019-06-26T08:52:54.894Z,10.08
2019-06-26T08:55:24.264Z,10.15
2019-06-26T08:57:53.672Z,9.85
2019-06-26T09:00:23.439Z,11.25
2019-06-26T09:02:52.798Z,9.83
2019-06-26T09:05:23.285Z,9.95
2019-06-26T09:07:52.669Z,10.48
2019-06-26T09:10:22.137Z,10.45
2019-06-26T09:12:51.573Z,12.88
2019-06-26T09:15:20.955Z,10.48
2019-06-26T09:17:50.358Z,9.70
2019-06-26T09:20:26.373Z,9.90
2019-06-26T09:22:55.713Z,9.58
2019-06-26T09:25:25.061Z,10.10
2019-06-26T09:27:54.443Z,10.82
2019-06-26T09:30:23.807Z,9.65
2019-06-26T09:32:53.249Z,9.20
2019-06-26T09:35:22.648Z,9.48
2019-06-26T09:37:52.093Z,8.48
2019-06-26T09:40:21.573Z,9.03
2019-06-26T09:42:51.007Z,8.48
2019-06-26T09:45:20.460Z,8.93
2019-06-26T09:47:49.850Z,9.18
2019-06-26T09:50:19.212Z,8.53
2019-06-26T09:52:48.575Z,8.85
2019-06-26T09:55:18.128Z,8.30
2019-06-26T09:57:47.505Z,8.08
2019-06-26T10:00:17.972Z,8.33
2019-06-26T10:02:47.300Z,8.55
2019-06-26T10:05:17.608Z,8.10
2019-06-26T10:07:46.991Z,9.20
2019-06-26T10:10:17.673Z,8.40
2019-06-26T10:12:47.021Z,8.30
2019-06-26T10:15:17.015Z,8.50
2019-06-26T10:17:46.347Z,8.10
2019-06-26T10:20:16.227Z,8.35
2019-06-26T10:22:45.616Z,7.92
2019-06-26T10:25:15.270Z,7.95
2019-06-26T10:27:44.703Z,7.75
2019-06-26T10:30:14.243Z,8.70
2019-06-26T10:32:43.812Z,7.85
2019-06-26T10:35:13.432Z,7.30
2019-06-26T10:37:42.863Z,7.87
2019-06-26T10:40:15.995Z,8.05
2019-06-26T10:42:43.325Z,7.90
2019-06-26T10:45:12.907Z,7.53
2019-06-26T10:47:42.254Z,7.65
2019-06-26T10:50:11.664Z,8.00
2019-06-26T10:52:41.072Z,8.03
2019-06-26T10:55:11.694Z,7.33
2019-06-26T10:57:41.116Z,6.97
2019-06-26T11:00:11.129Z,7.33
2019-06-26T11:02:40.515Z,7.00
2019-06-26T11:05:10.525Z,7.15
2019-06-26T11:07:39.914Z,6.90
2019-06-26T11:10:10.733Z,7.03
2019-06-26T11:12:40.054Z,7.45
2019-06-26T11:15:10.262Z,7.25
2019-06-26T11:17:39.847Z,7.25
2019-06-26T11:20:09.791Z,7.08
2019-06-26T11:22:39.175Z,7.08
2019-06-26T11:25:09.154Z,7.33
2019-06-26T11:27:38.498Z,6.55
2019-06-26T11:30:09.725Z,7.80
2019-06-26T11:32:39.157Z,6.40
2019-06-26T11:35:08.858Z,6.42
2019-06-26T11:37:38.629Z,6.80
2019-06-26T11:40:08.330Z,6.15
2019-06-26T11:42:37.676Z,5.60
2019-06-26T11:45:07.953Z,6.30
2019-06-26T11:47:39.400Z,6.10
2019-06-26T11:50:09.406Z,6.17
2019-06-26T11:52:38.784Z,6.10
2019-06-26T11:55:09.635Z,6.00
2019-06-26T11:57:38.970Z,6.40
2019-06-26T12:00:09.897Z,6.00
2019-06-26T12:02:39.348Z,6.35
2019-06-26T12:05:09.202Z,6.12
2019-06-26T12:07:41.411Z,6.05
2019-06-26T12:10:11.222Z,6.37
2019-06-26T12:12:40.712Z,6.35
2019-06-26T12:15:10.661Z,6.20
2019-06-26T12:17:40.056Z,5.80
2019-06-26T12:20:18.442Z,5.50
2019-06-26T12:22:41.619Z,6.17
2019-06-26T12:25:11.197Z,5.58
2019-06-26T12:27:40.567Z,5.70
2019-06-26T12:30:11.748Z,5.53
2019-06-26T12:32:42.744Z,6.10
2019-06-26T12:35:13.037Z,6.20
2019-06-26T12:37:42.443Z,5.72
2019-06-26T12:40:11.998Z,5.78
2019-06-26T12:42:41.336Z,5.72
2019-06-26T12:45:11.573Z,5.62
2019-06-26T12:47:40.920Z,5.22
2019-06-26T12:50:11.119Z,5.92
2019-06-26T12:52:40.657Z,5.55
2019-06-26T12:55:10.087Z,5.15
2019-06-26T12:57:39.428Z,5.30
2019-06-26T13:00:09.114Z,5.62
2019-06-26T13:02:38.444Z,5.35
2019-06-26T13:05:08.019Z,5.22
2019-06-26T13:07:37.399Z,5.30
2019-06-26T13:10:07.896Z,5.42
2019-06-26T13:12:38.126Z,5.55
2019-06-26T13:15:08.554Z,5.37
2019-06-26T13:17:37.980Z,5.08
2019-06-26T13:20:10.036Z,6.28
2019-06-26T13:22:39.362Z,6.33
2019-06-26T13:25:10.196Z,5.92
2019-06-26T13:27:39.563Z,5.95
2019-06-26T13:30:09.387Z,6.00
2019-06-26T13:32:38.805Z,5.45
2019-06-26T13:35:08.862Z,5.78
2019-06-26T13:37:38.222Z,5.55
2019-06-26T13:40:08.603Z,5.50
2019-06-26T13:42:37.952Z,5.22
2019-06-26T13:45:08.043Z,5.15
2019-06-26T13:47:37.375Z,4.92
2019-06-26T13:50:07.412Z,5.17
2019-06-26T13:52:36.773Z,4.95
2019-06-26T13:55:06.962Z,5.10
2019-06-26T13:57:36.352Z,5.05
2019-06-26T14:00:06.500Z,5.50
2019-06-26T14:02:35.834Z,5.25
2019-06-26T14:05:05.578Z,5.10
2019-06-26T14:07:35.083Z,4.80
2019-06-26T14:10:06.559Z,5.08
2019-06-26T14:12:35.932Z,4.70
2019-06-26T14:15:05.648Z,5.35
2019-06-26T14:17:36.209Z,5.17
2019-06-26T14:20:06.415Z,5.05
2019-06-26T14:22:36.174Z,5.00
2019-06-26T14:25:05.686Z,5.28
2019-06-26T14:27:35.636Z,5.42
2019-06-26T14:30:05.897Z,5.05
2019-06-26T14:32:35.224Z,5.33
2019-06-26T14:35:05.049Z,5.17
2019-06-26T14:37:35.541Z,5.10
2019-06-26T14:40:05.265Z,5.20
2019-06-26T14:42:34.619Z,5.17
2019-06-26T14:45:03.946Z,5.95
2019-06-26T14:47:35.544Z,4.87
2019-06-26T14:50:04.605Z,5.30
2019-06-26T14:52:35.168Z,5.42
2019-06-26T14:55:04.844Z,5.03
2019-06-26T14:57:34.210Z,5.58
2019-06-26T15:00:04.111Z,6.00
2019-06-26T15:02:33.448Z,5.67
2019-06-26T15:05:02.854Z,5.17
2019-06-26T15:07:32.213Z,5.58
2019-06-26T15:10:01.612Z,5.47
2019-06-26T15:12:30.928Z,5.75
2019-06-26T15:15:00.330Z,5.60
2019-06-26T15:17:29.671Z,5.70
2019-06-26T15:19:59.019Z,6.40
2019-06-26T15:22:28.378Z,5.70
2019-06-26T15:24:57.698Z,5.87
2019-06-26T15:27:27.088Z,6.75
2019-06-26T15:29:56.442Z,5.53
2019-06-26T15:32:25.776Z,6.20
2019-06-26T15:34:55.111Z,5.70
2019-06-26T15:37:24.478Z,5.92
2019-06-26T15:39:53.796Z,5.60
2019-06-26T15:42:23.150Z,5.67
2019-06-26T15:44:52.510Z,5.42
2019-06-26T15:47:21.843Z,5.22
2019-06-26T15:49:51.227Z,5.78
2019-06-26T15:52:20.576Z,6.08
2019-06-26T15:54:49.934Z,5.62
2019-06-26T15:57:19.288Z,5.45
2019-06-26T15:59:48.618Z,5.60
2019-06-26T16:02:17.939Z,6.33
2019-06-26T16:04:47.298Z,5.72
2019-06-26T16:07:16.644Z,5.67
2019-06-26T16:09:45.983Z,6.10
2019-06-26T16:12:15.315Z,6.05
2019-06-26T16:14:44.692Z,6.03
2019-06-26T16:17:20.421Z,5.90
2019-06-26T16:19:49.786Z,5.37
2019-06-26T16:22:31.724Z,6.33
2019-06-26T16:24:50.225Z,6.78
2019-06-26T16:27:19.581Z,7.22
2019-06-26T16:29:48.920Z,6.78
2019-06-26T16:32:18.283Z,6.15
2019-06-26T16:34:47.636Z,6.22
2019-06-26T16:37:17.013Z,6.05
2019-06-26T16:39:46.405Z,6.72
2019-06-26T16:42:15.746Z,6.00
2019-06-26T16:44:45.138Z,7.20
2019-06-26T16:47:14.511Z,6.78
2019-06-26T16:49:43.903Z,6.50
2019-06-26T16:52:13.226Z,6.75
2019-06-26T16:54:42.571Z,6.58
2019-06-26T16:57:11.910Z,6.70
2019-06-26T16:59:41.281Z,6.90
2019-06-26T17:02:10.619Z,6.70
2019-06-26T17:04:39.945Z,6.42
2019-06-26T17:07:09.300Z,7.12
2019-06-26T17:09:38.632Z,7.17
2019-06-26T17:12:07.974Z,6.92
2019-06-26T17:14:37.618Z,6.87
2019-06-26T17:17:06.946Z,7.12
2019-06-26T17:19:36.424Z,7.17
2019-06-26T17:22:05.844Z,7.58
2019-06-26T17:24:35.172Z,6.87
2019-06-26T17:27:04.532Z,7.92
2019-06-26T17:29:33.876Z,8.08
2019-06-26T17:32:03.253Z,8.63
2019-06-26T17:34:32.571Z,8.35
2019-06-26T17:37:02.139Z,9.40
2019-06-26T17:39:31.642Z,8.73
2019-06-26T17:42:00.965Z,8.43
2019-06-26T17:44:30.342Z,9.43
2019-06-26T17:46:59.717Z,8.75
2019-06-26T17:49:29.061Z,8.15
2019-06-26T17:51:58.385Z,9.08
2019-06-26T17:54:27.742Z,8.78
2019-06-26T17:56:57.095Z,9.40
2019-06-26T17:59:26.448Z,9.13
2019-06-26T18:01:55.802Z,9.95
2019-06-26T18:04:25.135Z,9.18
2019-06-26T18:06:55.455Z,9.48
2019-06-26T18:09:24.843Z,8.78
2019-06-26T18:11:54.210Z,9.20
2019-06-26T18:14:23.546Z,9.03
2019-06-26T18:16:52.910Z,11.97
2019-06-26T18:19:22.276Z,10.72
2019-06-26T18:21:51.604Z,9.58
2019-06-26T18:24:21.100Z,9.20
2019-06-26T18:26:50.500Z,10.15
2019-06-26T18:29:19.872Z,9.98
2019-06-26T18:31:53.495Z,9.53
2019-06-26T18:34:22.887Z,9.10
2019-06-26T18:36:52.275Z,9.45
2019-06-26T18:39:21.775Z,11.53
2019-06-26T18:41:51.157Z,10.30
2019-06-26T18:44:20.525Z,10.63
2019-06-26T18:46:49.921Z,11.08
2019-06-26T18:49:19.266Z,11.85
2019-06-26T18:51:48.631Z,12.88
2019-06-26T18:54:17.999Z,13.83
2019-06-26T18:56:47.375Z,13.32
2019-06-26T18:59:17.277Z,13.00
2019-06-26T19:01:46.750Z,12.85
2019-06-26T19:04:16.201Z,12.75
2019-06-26T19:06:45.621Z,13.22
2019-06-26T19:09:15.155Z,12.37
2019-06-26T19:11:44.637Z,12.30
2019-06-26T19:14:14.151Z,11.65
2019-06-26T19:16:43.663Z,10.75
2019-06-26T19:19:13.162Z,10.32
2019-06-26T19:21:42.617Z,10.00
2019-06-26T19:24:14.128Z,9.55
2019-06-26T19:26:43.780Z,10.32
2019-06-26T19:29:13.323Z,9.93
2019-06-26T19:31:42.804Z,9.05
2019-06-26T19:34:12.307Z,10.00
2019-06-26T19:36:50.088Z,9.75
2019-06-26T19:39:13.071Z,9.58
2019-06-26T19:41:42.512Z,11.83
2019-06-26T19:44:12.002Z,10.60
2019-06-26T19:46:42.156Z,9.05
2019-06-26T19:49:11.676Z,9.93
2019-06-26T19:51:41.124Z,10.80
2019-06-26T19:54:25.975Z,11.53
2019-06-26T19:56:41.785Z,10.75
2019-06-26T19:59:11.321Z,11.95
2019-06-26T20:01:40.749Z,10.23
2019-06-26T20:04:10.351Z,10.10
2019-06-26T20:06:43.769Z,9.78
2019-06-26T20:09:13.855Z,9.85
2019-06-26T20:11:43.791Z,9.20
2019-06-26T20:14:13.477Z,9.58
2019-06-26T20:16:44.115Z,9.03
2019-06-26T20:19:16.008Z,9.00
2019-06-26T20:21:45.790Z,9.43
2019-06-26T20:24:15.662Z,9.68
2019-06-26T20:26:45.547Z,9.05
2019-06-26T20:29:15.526Z,9.33
2019-06-26T20:31:51.905Z,11.97
2019-06-26T20:34:21.705Z,9.45
2019-06-26T20:36:51.338Z,9.38
2019-06-26T20:39:21.192Z,10.03
2019-06-26T20:42:01.491Z,9.55
2019-06-26T20:44:31.230Z,10.43
2019-06-26T20:47:00.956Z,10.70
2019-06-26T20:49:30.694Z,11.83
2019-06-26T20:55:00.628Z,10.53
2019-06-26T20:57:20.576Z,10.60
2019-06-26T20:59:50.115Z,10.58
2019-06-26T21:02:20.020Z,10.80
2019-06-26T21:04:49.765Z,10.85
2019-06-26T21:07:38.655Z,12.00
2019-06-26T21:10:08.540Z,11.00
2019-06-26T21:12:40.573Z,19.45
2019-06-26T21:15:11.033Z,12.95
2019-06-26T21:17:40.756Z,12.03
2019-06-26T21:20:11.784Z,11.85
2019-06-26T21:22:42.554Z,12.40
2019-06-26T21:25:18.935Z,13.22
2019-06-26T21:27:43.136Z,12.30
2019-06-26T21:30:12.673Z,12.58
2019-06-26T21:32:44.673Z,11.73
2019-06-26T21:35:14.697Z,12.20
2019-06-26T21:37:46.520Z,12.47
2019-06-26T21:40:18.890Z,12.45
2019-06-26T21:42:48.500Z,13.03
2019-06-26T21:45:20.361Z,12.93
2019-06-26T21:47:49.781Z,17.43
2019-06-26T21:50:19.262Z,14.10
2019-06-26T21:52:48.694Z,15.53
2019-06-26T21:55:33.341Z,17.00
2019-06-26T21:57:49.197Z,17.85
2019-06-26T22:00:18.778Z,16.87
2019-06-26T22:02:48.150Z,17.95
2019-06-26T22:05:18.039Z,19.50
2019-06-26T22:07:47.409Z,18.97
2019-06-26T22:10:16.958Z,22.07
2019-06-26T22:12:46.313Z,20.53
2019-06-26T22:15:16.065Z,15.60
2019-06-26T22:17:45.414Z,16.53
2019-06-26T22:20:16.443Z,16.13
2019-06-26T22:22:45.825Z,14.90
2019-06-26T22:25:15.373Z,15.53
2019-06-26T22:27:44.718Z,15.27
2019-06-26T22:30:14.061Z,15.90
2019-06-26T22:32:43.421Z,16.33
2019-06-26T22:35:12.998Z,15.73
2019-06-26T22:37:42.361Z,15.63
2019-06-26T22:40:11.817Z,17.85
2019-06-26T22:42:41.192Z,18.70
2019-06-26T22:45:10.744Z,18.43
2019-06-26T22:47:40.096Z,17.80
2019-06-26T22:50:09.858Z,19.43
2019-06-26T22:52:39.319Z,18.37
2019-06-26T22:55:09.583Z,18.30
2019-06-26T22:57:38.998Z,17.40
2019-06-26T23:00:09.528Z,17.20
2019-06-26T23:02:38.922Z,17.75
2019-06-26T23:05:08.294Z,17.13
2019-06-26T23:07:37.632Z,17.80
2019-06-26T23:10:08.434Z,17.80
2019-06-26T23:12:37.776Z,17.00
2019-06-26T23:15:07.633Z,21.67
2019-06-26T23:17:37.079Z,17.67
2019-06-26T23:20:07.253Z,16.73
2019-06-26T23:22:36.634Z,16.63
2019-06-26T23:25:06.212Z,15.63
2019-06-26T23:27:35.581Z,15.77
2019-06-26T23:30:05.365Z,16.50
2019-06-26T23:32:34.728Z,16.00
2019-06-26T23:35:04.089Z,16.77
2019-06-26T23:37:33.472Z,15.33
2019-06-26T23:40:02.815Z,15.90
2019-06-26T23:42:32.193Z,16.50
2019-06-26T23:45:02.487Z,16.17
2019-06-26T23:47:31.859Z,15.70
2019-06-26T23:50:01.223Z,16.40
2019-06-26T23:52:30.635Z,15.53
2019-06-26T23:55:00.067Z,14.77
2019-06-26T23:57:29.427Z,16.27
2019-06-26T23:59:58.804Z,15.67
